createdAt,value
2023-03-18T00:00:36.167Z,14.98
2023-03-18T00:03:03.905Z,13.57
2023-03-18T00:05:32.464Z,17.27
2023-03-18T00:08:00.209Z,14.27
2023-03-18T00:10:29.833Z,13.13
2023-03-18T00:12:58.817Z,12.32
2023-03-18T00:15:26.564Z,13.23
2023-03-18T00:17:54.539Z,13.18
2023-03-18T00:20:29.791Z,17.20
2023-03-18T00:22:58.235Z,13.98
2023-03-18T00:25:25.915Z,15.50
2023-03-18T00:27:55.528Z,14.82
2023-03-18T00:32:51.619Z,13.75
2023-03-18T00:35:19.913Z,16.08
2023-03-18T00:37:48.626Z,15.18
2023-03-18T00:40:20.872Z,16.37
2023-03-18T00:42:50.606Z,15.02
2023-03-18T00:45:19.772Z,14.20
2023-03-18T00:47:48.961Z,18.83
2023-03-18T00:50:17.164Z,16.35
2023-03-18T00:52:45.139Z,16.25
2023-03-18T00:55:13.396Z,13.63
2023-03-18T00:57:41.199Z,13.23
2023-03-18T01:00:11.459Z,15.73
2023-03-18T01:02:41.739Z,20.73
2023-03-18T01:05:12.218Z,19.13
2023-03-18T01:07:39.894Z,15.30
2023-03-18T01:12:57.951Z,15.25
2023-03-18T01:18:16.540Z,17.05
2023-03-18T01:23:13.327Z,20.40
2023-03-18T01:25:41.120Z,13.35
2023-03-18T01:28:09.478Z,18.58
2023-03-18T01:30:38.228Z,17.73
2023-03-18T01:33:07.157Z,17.37
2023-03-18T01:35:37.941Z,16.15
2023-03-18T01:38:06.743Z,14.07
2023-03-18T01:40:37.008Z,16.55
2023-03-18T01:43:15.268Z,15.82
2023-03-18T01:45:46.020Z,14.93
2023-03-18T01:48:16.338Z,13.82
2023-03-18T01:50:48.737Z,14.90
2023-03-18T01:53:19.268Z,15.25
2023-03-18T01:55:49.463Z,15.35
2023-03-18T01:58:22.121Z,16.48
2023-03-18T02:00:55.559Z,16.70
2023-03-18T02:03:23.728Z,15.35
2023-03-18T02:05:53.357Z,16.55
2023-03-18T02:10:51.085Z,19.92
2023-03-18T02:13:19.611Z,19.20
2023-03-18T02:15:52.592Z,21.17
2023-03-18T02:18:24.619Z,15.93
2023-03-18T02:21:08.828Z,17.27
2023-03-18T02:23:46.387Z,16.98
2023-03-18T02:26:22.369Z,17.77
2023-03-18T02:28:53.147Z,17.50
2023-03-18T02:31:22.532Z,15.70
2023-03-18T02:33:50.941Z,16.58
2023-03-18T02:36:20.610Z,16.15
2023-03-18T02:41:18.841Z,14.95
2023-03-18T02:43:47.361Z,15.10
2023-03-18T02:46:43.322Z,14.00
2023-03-18T02:49:11.969Z,16.55
2023-03-18T02:51:40.317Z,17.63
2023-03-18T02:54:11.738Z,15.55
2023-03-18T02:56:41.212Z,15.82
2023-03-18T02:59:09.604Z,18.10
2023-03-18T03:01:40.198Z,16.60
2023-03-18T03:04:08.471Z,11.70
2023-03-18T03:06:37.148Z,13.20
2023-03-18T03:09:07.045Z,13.80
2023-03-18T03:11:34.721Z,13.52
2023-03-18T03:14:02.377Z,12.43
2023-03-18T03:16:31.063Z,14.15
2023-03-18T03:19:00.274Z,11.13
2023-03-18T03:21:29.227Z,12.90
2023-03-18T03:23:57.471Z,13.57
2023-03-18T03:26:25.118Z,11.80
2023-03-18T03:28:52.927Z,14.55
2023-03-18T03:31:21.244Z,13.13
2023-03-18T03:33:48.934Z,13.68
2023-03-18T03:36:18.571Z,13.05
2023-03-18T03:41:15.820Z,14.43
2023-03-18T03:43:44.687Z,13.00
2023-03-18T03:46:13.267Z,11.30
2023-03-18T03:48:41.193Z,14.70
2023-03-18T03:51:08.885Z,12.93
2023-03-18T03:53:38.755Z,13.40
2023-03-18T03:56:09.129Z,9.90
2023-03-18T03:58:37.278Z,11.55
2023-03-18T04:01:06.947Z,14.60
2023-03-18T04:06:02.429Z,10.15
2023-03-18T04:08:30.628Z,14.13
2023-03-18T04:10:59.670Z,11.15
2023-03-18T04:13:27.416Z,14.23
2023-03-18T04:15:55.654Z,11.10
2023-03-18T04:18:23.403Z,12.20
2023-03-18T04:20:51.056Z,13.48
2023-03-18T04:23:19.884Z,12.70
2023-03-18T04:25:47.736Z,13.55
2023-03-18T04:28:16.775Z,11.73
2023-03-18T04:30:44.907Z,11.35
2023-03-18T04:33:12.894Z,11.95
2023-03-18T04:35:42.727Z,11.63
2023-03-18T04:38:10.934Z,13.15
2023-03-18T04:40:38.616Z,12.32
2023-03-18T04:43:06.335Z,13.85
2023-03-18T04:45:35.882Z,14.43
2023-03-18T04:48:04.153Z,13.77
2023-03-18T04:50:32.018Z,14.45
2023-03-18T04:53:00.755Z,13.70
2023-03-18T04:55:28.424Z,13.80
2023-03-18T04:57:56.057Z,12.02
2023-03-18T05:00:24.601Z,12.45
2023-03-18T05:02:53.636Z,12.57
2023-03-18T05:05:21.353Z,14.25
2023-03-18T05:07:49.498Z,12.20
2023-03-18T05:10:18.844Z,14.93
2023-03-18T05:12:46.515Z,13.02
2023-03-18T05:15:15.115Z,14.30
2023-03-18T05:17:42.890Z,15.32
2023-03-18T05:20:13.445Z,15.10
2023-03-18T05:22:41.895Z,14.05
2023-03-18T05:25:11.472Z,13.60
2023-03-18T05:30:08.567Z,15.55
2023-03-18T05:32:36.668Z,14.02
2023-03-18T05:35:05.519Z,11.68
2023-03-18T05:37:35.131Z,14.27
2023-03-18T05:40:04.223Z,16.23
2023-03-18T05:42:31.956Z,12.85
2023-03-18T05:45:00.021Z,12.25
2023-03-18T05:47:27.788Z,14.60
2023-03-18T05:49:55.524Z,14.00
2023-03-18T05:52:23.857Z,13.50
2023-03-18T05:54:54.280Z,14.38
2023-03-18T05:57:22.301Z,13.90
2023-03-18T05:59:50.462Z,13.85
2023-03-18T06:02:18.410Z,11.77
2023-03-18T06:04:46.148Z,13.07
2023-03-18T06:07:14.292Z,14.60
2023-03-18T06:09:41.969Z,14.13
2023-03-18T06:12:11.435Z,14.27
2023-03-18T06:14:40.109Z,11.63
2023-03-18T06:17:07.883Z,14.75
2023-03-18T06:19:35.544Z,13.18
2023-03-18T06:22:03.727Z,14.00
2023-03-18T06:24:31.536Z,12.93
2023-03-18T06:26:59.272Z,12.18
2023-03-18T06:29:29.737Z,11.85
2023-03-18T06:31:57.395Z,14.32
2023-03-18T06:34:25.298Z,13.57
2023-03-18T06:36:53.805Z,12.60
2023-03-18T06:39:21.482Z,14.48
2023-03-18T06:41:49.461Z,13.00
2023-03-18T06:44:17.656Z,12.75
2023-03-18T06:46:47.037Z,12.63
2023-03-18T06:49:14.934Z,13.43
2023-03-18T06:51:44.114Z,12.48
2023-03-18T06:54:11.786Z,14.23
2023-03-18T06:56:41.675Z,15.27
2023-03-18T06:59:10.852Z,12.00
2023-03-18T07:01:38.713Z,10.50
2023-03-18T07:04:08.235Z,10.98
2023-03-18T07:09:04.162Z,12.55
2023-03-18T07:11:31.821Z,11.40
2023-03-18T07:13:59.512Z,10.30
2023-03-18T07:16:27.488Z,10.43
2023-03-18T07:18:55.217Z,10.82
2023-03-18T07:21:25.182Z,10.63
2023-03-18T07:23:55.146Z,10.48
2023-03-18T07:26:24.045Z,10.82
2023-03-18T07:28:51.894Z,9.02
2023-03-18T07:31:19.899Z,10.70
2023-03-18T07:33:47.556Z,10.73
2023-03-18T07:36:16.102Z,10.18
2023-03-18T07:38:45.167Z,10.30
2023-03-18T07:41:13.302Z,12.32
2023-03-18T07:43:41.729Z,9.35
2023-03-18T07:46:09.432Z,9.18
2023-03-18T07:48:37.173Z,9.07
2023-03-18T07:51:05.769Z,11.80
2023-03-18T07:53:33.751Z,11.85
2023-03-18T07:56:03.327Z,9.38
2023-03-18T08:00:59.831Z,11.57
2023-03-18T08:03:27.959Z,12.68
2023-03-18T08:05:56.592Z,11.13
2023-03-18T08:08:24.791Z,12.82
2023-03-18T08:10:52.546Z,14.02
2023-03-18T08:13:21.632Z,10.68
2023-03-18T08:15:49.325Z,9.55
2023-03-18T08:18:16.973Z,9.27
2023-03-18T08:20:45.191Z,9.45
2023-03-18T08:23:12.907Z,10.93
2023-03-18T08:25:40.700Z,7.82
2023-03-18T08:28:08.674Z,10.38
2023-03-18T08:30:40.119Z,9.55
2023-03-18T08:33:07.935Z,8.32
2023-03-18T08:35:35.996Z,8.40
2023-03-18T08:38:04.141Z,9.43
2023-03-18T08:40:32.523Z,8.10
2023-03-18T08:43:00.716Z,8.30
2023-03-18T08:45:28.680Z,7.15
2023-03-18T08:47:57.726Z,9.57
2023-03-18T08:50:29.049Z,9.15
2023-03-18T08:52:58.495Z,9.05
2023-03-18T08:57:58.655Z,8.23
2023-03-18T09:00:27.391Z,8.77
2023-03-18T09:02:56.043Z,8.27
2023-03-18T09:05:25.085Z,5.88
2023-03-18T09:07:53.176Z,8.40
2023-03-18T09:10:21.444Z,6.50
2023-03-18T09:12:49.850Z,7.15
2023-03-18T09:15:20.269Z,8.00
2023-03-18T09:18:03.845Z,5.63
2023-03-18T09:20:38.892Z,5.47
2023-03-18T09:23:07.340Z,5.22
2023-03-18T09:25:35.312Z,4.78
2023-03-18T09:28:03.373Z,5.65
2023-03-18T09:30:31.913Z,4.47
2023-03-18T09:32:59.949Z,5.28
2023-03-18T09:35:29.068Z,7.47
2023-03-18T09:37:59.009Z,8.95
2023-03-18T09:40:30.589Z,4.97
2023-03-18T09:43:16.394Z,5.65
2023-03-18T09:45:57.008Z,4.43
2023-03-18T09:49:00.048Z,5.45
2023-03-18T09:51:41.874Z,5.90
2023-03-18T09:54:17.733Z,4.50
2023-03-18T09:56:46.688Z,4.63
2023-03-18T09:59:19.513Z,6.00
2023-03-18T10:01:50.593Z,5.80
2023-03-18T10:04:23.870Z,4.78
2023-03-18T10:06:58.021Z,5.22
2023-03-18T10:09:31.619Z,4.93
2023-03-18T10:12:07.312Z,6.95
2023-03-18T10:14:41.818Z,4.13
2023-03-18T10:17:19.329Z,6.32
2023-03-18T10:19:52.358Z,5.10
2023-03-18T10:22:45.220Z,5.75
2023-03-18T10:25:21.390Z,4.60
2023-03-18T10:28:00.136Z,4.85
2023-03-18T10:30:50.936Z,4.30
2023-03-18T10:33:27.572Z,5.55
2023-03-18T10:36:04.949Z,6.75
2023-03-18T10:38:37.696Z,6.43
2023-03-18T10:41:17.650Z,5.43
2023-03-18T10:43:48.583Z,4.95
2023-03-18T10:46:19.972Z,4.70
2023-03-18T10:48:51.387Z,6.07
2023-03-18T10:51:25.020Z,4.35
2023-03-18T10:54:00.410Z,4.70
2023-03-18T10:56:30.175Z,3.70
2023-03-18T10:58:58.237Z,4.93
2023-03-18T11:01:30.390Z,5.28
2023-03-18T11:04:02.160Z,6.22
2023-03-18T11:06:41.936Z,3.83
2023-03-18T11:09:12.268Z,3.63
2023-03-18T11:11:45.212Z,3.80
2023-03-18T11:14:17.109Z,3.42
2023-03-18T11:16:51.403Z,3.78
2023-03-18T11:19:32.165Z,4.32
2023-03-18T11:22:11.747Z,4.82
2023-03-18T11:24:42.581Z,4.55
2023-03-18T11:34:22.021Z,4.30
2023-03-18T11:37:36.958Z,3.95
2023-03-18T11:44:07.741Z,4.15
2023-03-18T11:47:07.182Z,2.95
2023-03-18T11:52:33.536Z,3.33
2023-03-18T11:55:27.573Z,3.22
2023-03-18T11:58:31.344Z,2.60
2023-03-18T12:01:08.742Z,3.35
2023-03-18T12:04:00.632Z,3.88
2023-03-18T12:06:31.580Z,4.75
2023-03-18T12:09:05.246Z,4.50
2023-03-18T12:11:57.312Z,5.05
2023-03-18T12:14:32.882Z,3.85
2023-03-18T12:17:14.166Z,2.35
2023-03-18T12:20:05.790Z,3.30
2023-03-18T12:22:50.303Z,3.75
2023-03-18T12:25:52.242Z,3.33
2023-03-18T12:28:33.061Z,2.88
2023-03-18T12:31:20.214Z,2.83
2023-03-18T12:33:56.354Z,3.42
2023-03-18T12:36:37.524Z,2.88
2023-03-18T12:39:49.060Z,4.60
2023-03-18T12:42:20.039Z,2.47
2023-03-18T12:44:58.838Z,3.35
2023-03-18T12:47:35.902Z,2.45
2023-03-18T12:50:08.863Z,4.45
2023-03-18T12:52:43.894Z,3.03
2023-03-18T12:55:17.178Z,4.18
2023-03-18T12:57:49.448Z,4.78
2023-03-18T13:00:25.804Z,3.33
2023-03-18T13:02:59.704Z,3.13
2023-03-18T13:05:36.750Z,3.67
2023-03-18T13:08:28.542Z,3.20
2023-03-18T13:11:05.844Z,2.92
2023-03-18T13:13:38.494Z,4.22
2023-03-18T13:16:08.428Z,5.30
2023-03-18T13:18:41.080Z,3.92
2023-03-18T13:21:09.556Z,3.15
2023-03-18T13:24:07.036Z,3.40
2023-03-18T13:26:52.539Z,3.42
2023-03-18T13:29:32.681Z,3.58
2023-03-18T13:32:09.434Z,3.78
2023-03-18T13:34:56.701Z,6.30
2023-03-18T13:37:35.888Z,3.22
2023-03-18T13:40:22.758Z,3.25
2023-03-18T13:42:52.554Z,4.63
2023-03-18T13:45:28.847Z,3.60
2023-03-18T13:47:59.367Z,3.30
2023-03-18T13:50:33.245Z,3.53
2023-03-18T13:53:02.580Z,4.68
2023-03-18T13:55:35.493Z,4.38
2023-03-18T13:58:20.113Z,6.82
2023-03-18T14:01:17.275Z,6.15
2023-03-18T14:03:57.135Z,3.83
2023-03-18T14:06:26.973Z,5.18
2023-03-18T14:08:54.797Z,4.22
2023-03-18T14:11:47.143Z,3.65
2023-03-18T14:14:54.789Z,3.45
2023-03-18T14:17:28.341Z,5.10
2023-03-18T14:19:56.905Z,5.35
2023-03-18T14:22:30.878Z,3.95
2023-03-18T14:25:41.489Z,5.10
2023-03-18T14:28:27.908Z,4.15
2023-03-18T14:31:00.372Z,7.97
2023-03-18T14:33:34.478Z,8.73
2023-03-18T14:36:06.844Z,4.15
2023-03-18T14:38:42.637Z,2.97
2023-03-18T14:41:22.629Z,4.28
2023-03-18T14:44:09.719Z,6.13
2023-03-18T14:46:43.073Z,2.83
2023-03-18T14:49:35.855Z,4.90
2023-03-18T14:52:14.465Z,3.65
2023-03-18T14:54:46.420Z,5.43
2023-03-18T14:57:14.175Z,6.55
2023-03-18T14:59:43.266Z,3.45
2023-03-18T15:02:24.028Z,5.78
2023-03-18T15:04:54.401Z,4.82
2023-03-18T15:07:34.616Z,5.07
2023-03-18T15:10:05.648Z,5.63
2023-03-18T15:12:33.374Z,4.20
2023-03-18T15:15:03.147Z,6.32
2023-03-18T15:17:31.436Z,4.18
2023-03-18T15:20:00.426Z,2.92
2023-03-18T15:22:31.164Z,4.38
2023-03-18T15:25:02.259Z,3.92
2023-03-18T15:27:32.225Z,4.30
2023-03-18T15:30:04.738Z,5.38
2023-03-18T15:32:34.436Z,5.97
2023-03-18T15:35:16.595Z,3.10
2023-03-18T15:37:46.597Z,4.10
2023-03-18T15:40:32.911Z,3.15
2023-03-18T15:43:06.475Z,5.28
2023-03-18T15:45:36.076Z,3.00
2023-03-18T15:48:09.264Z,4.57
2023-03-18T15:50:37.682Z,4.32
2023-03-18T15:53:18.879Z,3.13
2023-03-18T15:55:52.731Z,5.40
2023-03-18T15:58:23.880Z,2.88
2023-03-18T16:00:54.853Z,2.90
2023-03-18T16:03:27.695Z,6.00
2023-03-18T16:05:56.517Z,3.90
2023-03-18T16:08:24.889Z,5.33
2023-03-18T16:10:55.928Z,6.38
2023-03-18T16:13:25.659Z,5.97
2023-03-18T16:15:54.809Z,6.28
2023-03-18T16:18:23.604Z,6.93
2023-03-18T16:20:52.863Z,3.72
2023-03-18T16:23:21.435Z,5.55
2023-03-18T16:25:51.084Z,5.30
2023-03-18T16:28:22.079Z,3.72
2023-03-18T16:30:52.745Z,6.75
2023-03-18T16:33:21.948Z,6.40
2023-03-18T16:35:55.619Z,5.10
2023-03-18T16:38:23.704Z,3.92
2023-03-18T16:40:54.308Z,4.03
2023-03-18T16:43:24.101Z,5.35
2023-03-18T16:45:52.371Z,6.97
2023-03-18T16:48:22.884Z,3.40
2023-03-18T16:50:52.521Z,4.72
2023-03-18T16:53:23.324Z,5.80
2023-03-18T16:55:54.484Z,3.75
2023-03-18T16:58:26.567Z,4.88
2023-03-18T17:00:54.675Z,5.38
2023-03-18T17:03:23.841Z,4.72
2023-03-18T17:05:52.142Z,14.25
2023-03-18T17:08:22.104Z,5.82
2023-03-18T17:10:52.646Z,6.47
2023-03-18T17:13:23.864Z,4.13
2023-03-18T17:15:52.371Z,5.53
2023-03-18T17:18:22.335Z,6.97
2023-03-18T17:20:52.782Z,5.47
2023-03-18T17:23:22.238Z,1.65
2023-03-18T17:25:53.571Z,2.05
2023-03-18T17:28:28.044Z,1.10
2023-03-18T17:30:56.827Z,1.35
2023-03-18T17:33:27.162Z,1.20
2023-03-18T17:35:56.474Z,1.80
2023-03-18T17:38:24.667Z,1.40
2023-03-18T17:40:52.856Z,2.70
2023-03-18T17:43:27.486Z,2.55
2023-03-18T17:45:56.561Z,0.85
2023-03-18T17:48:25.686Z,2.25
2023-03-18T17:50:57.290Z,1.05
2023-03-18T17:53:32.963Z,0.90
2023-03-18T17:56:02.401Z,2.03
2023-03-18T17:58:31.788Z,2.25
2023-03-18T18:01:05.980Z,1.90
2023-03-18T18:03:35.850Z,1.77
2023-03-18T18:06:06.809Z,2.00
2023-03-18T18:08:36.064Z,2.53
2023-03-18T18:11:15.968Z,3.00
2023-03-18T18:13:43.664Z,3.72
2023-03-18T18:16:11.407Z,1.65
2023-03-18T18:18:40.022Z,1.17
2023-03-18T18:21:15.500Z,3.78
2023-03-18T18:23:46.322Z,1.65
2023-03-18T18:26:15.844Z,2.90
2023-03-18T18:28:48.233Z,3.13
2023-03-18T18:31:19.205Z,2.50
2023-03-18T18:36:40.145Z,3.10
2023-03-18T18:39:09.798Z,2.10
2023-03-18T18:44:05.073Z,1.90
2023-03-18T18:46:34.710Z,2.85
2023-03-18T18:51:30.174Z,6.25
2023-03-18T18:54:00.364Z,6.07
2023-03-18T18:56:34.046Z,6.80
2023-03-18T18:59:05.634Z,8.82
2023-03-18T19:01:33.380Z,8.60
2023-03-18T19:04:02.613Z,8.93
2023-03-18T19:06:32.633Z,8.52
2023-03-18T19:09:03.891Z,5.25
2023-03-18T19:11:31.576Z,7.00
2023-03-18T19:14:18.785Z,6.57
2023-03-18T19:16:48.099Z,6.60
2023-03-18T19:19:16.598Z,5.78
2023-03-18T19:21:45.243Z,3.58
2023-03-18T19:24:33.018Z,9.30
2023-03-18T19:27:03.672Z,4.13
2023-03-18T19:29:32.522Z,2.72
2023-03-18T19:32:01.261Z,9.53
2023-03-18T19:34:30.307Z,16.08
2023-03-18T19:36:57.972Z,7.63
2023-03-18T19:39:27.679Z,14.18
2023-03-18T19:41:57.256Z,23.20
2023-03-18T19:46:56.225Z,9.32
2023-03-18T19:49:26.820Z,6.20
2023-03-18T19:51:55.426Z,4.30
2023-03-18T19:54:30.347Z,4.00
2023-03-18T19:57:01.184Z,4.30
2023-03-18T19:59:37.316Z,4.03
2023-03-18T20:02:19.182Z,3.53
2023-03-18T20:04:48.095Z,4.82
2023-03-18T20:07:16.106Z,3.72
2023-03-18T20:09:44.347Z,3.83
2023-03-18T20:12:22.764Z,3.90
2023-03-18T20:14:51.144Z,3.95
2023-03-18T20:17:37.524Z,6.82
2023-03-18T20:20:06.716Z,3.88
2023-03-18T20:22:37.262Z,4.07
2023-03-18T20:25:08.670Z,3.60
2023-03-18T20:27:37.713Z,5.95
2023-03-18T20:30:17.873Z,4.07
2023-03-18T20:32:45.541Z,3.63
2023-03-18T20:35:13.405Z,3.33
2023-03-18T20:37:41.978Z,3.65
2023-03-18T20:40:19.004Z,3.53
2023-03-18T20:42:48.383Z,4.03
2023-03-18T20:45:16.863Z,3.90
2023-03-18T20:47:44.892Z,3.70
2023-03-18T20:50:16.041Z,4.47
2023-03-18T20:52:44.969Z,3.70
2023-03-18T20:55:25.751Z,5.72
2023-03-18T20:57:55.387Z,4.68
2023-03-18T21:02:54.228Z,3.13
2023-03-18T21:05:22.667Z,2.40
2023-03-18T21:07:50.486Z,4.07
2023-03-18T21:10:20.317Z,4.07
2023-03-18T21:12:48.585Z,3.40
2023-03-18T21:15:21.702Z,2.97
2023-03-18T21:17:50.046Z,2.63
2023-03-18T21:20:22.376Z,2.80
2023-03-18T21:22:51.993Z,3.97
2023-03-18T21:25:21.825Z,3.03
2023-03-18T21:27:50.105Z,3.83
2023-03-18T21:31:09.790Z,4.63
2023-03-18T21:33:39.285Z,2.63
2023-03-18T21:36:07.794Z,3.33
2023-03-18T21:38:36.221Z,2.78
2023-03-18T21:41:04.283Z,2.85
2023-03-18T21:43:34.692Z,3.70
2023-03-18T21:46:02.903Z,2.78
2023-03-18T21:48:31.541Z,4.47
2023-03-18T21:51:00.682Z,2.58
2023-03-18T21:53:29.796Z,2.15
2023-03-18T21:55:57.559Z,3.70
2023-03-18T21:58:27.101Z,3.17
2023-03-18T22:00:56.762Z,3.17
2023-03-18T22:05:54.426Z,4.10
2023-03-18T22:08:24.380Z,3.75
2023-03-18T22:10:53.033Z,2.45
2023-03-18T22:13:22.804Z,1.80
2023-03-18T22:15:51.769Z,4.10
2023-03-18T22:18:20.016Z,4.15
2023-03-18T22:20:50.359Z,2.92
2023-03-18T22:23:20.948Z,3.78
2023-03-18T22:25:51.740Z,2.30
2023-03-18T22:28:19.684Z,2.20
2023-03-18T22:30:52.131Z,2.22
2023-03-18T22:33:24.951Z,5.65
2023-03-18T22:35:53.467Z,2.83
2023-03-18T22:38:23.779Z,3.28
2023-03-18T22:40:54.991Z,3.30
2023-03-18T22:43:31.694Z,3.15
2023-03-18T22:46:01.186Z,3.40
2023-03-18T22:48:29.132Z,4.40
2023-03-18T22:50:59.965Z,3.45
2023-03-18T22:53:30.557Z,2.63
2023-03-18T22:56:05.484Z,2.97
2023-03-18T22:58:33.232Z,3.30
2023-03-18T23:01:00.908Z,3.42
2023-03-18T23:03:31.067Z,2.90
2023-03-18T23:06:00.099Z,2.67
2023-03-18T23:08:28.269Z,3.72
2023-03-18T23:11:00.301Z,5.53
2023-03-18T23:13:31.195Z,2.72
2023-03-18T23:15:59.147Z,4.30
2023-03-18T23:18:27.521Z,4.78
2023-03-18T23:20:55.437Z,3.55
2023-03-18T23:23:23.428Z,4.40
2023-03-18T23:25:52.750Z,3.95
2023-03-18T23:28:20.704Z,2.45
2023-03-18T23:30:52.478Z,2.88
2023-03-18T23:33:21.183Z,2.78
2023-03-18T23:35:49.286Z,4.37
2023-03-18T23:38:17.154Z,3.72
2023-03-18T23:40:44.979Z,2.28
2023-03-18T23:43:12.661Z,2.28
2023-03-18T23:45:40.558Z,3.00
2023-03-18T23:48:10.219Z,4.47
2023-03-18T23:53:05.663Z,2.85
2023-03-18T23:55:35.185Z,3.83
2023-03-18T23:58:13.401Z,2.97
